KSME/SME METAR and TAF weather

Enter ICAO airport designator
Station Type Date Time Source
KSME METAR 2021/10/24 21:15 UTC NOAA

KSME 242115Z AUTO 19010KT 140V210 10SM FEW050 25/14 A2995 RMK AO2


Station Type Date Time Source
KSME Decoded METAR 2021/10/24 21:15 UTC NOAA

Somerset, Somerset-Pulaski County - J.T. Wilson Field Airport, KY, United States (KSME) 37-03-15N 084-36-54W
Oct 24, 2021 - 05:15 PM EDT / 2021.10.24 2115 UTC
Wind: from the S (190 degrees) at 12 MPH (10 KT) (direction variable):0
Visibility: 10 mile(s):0
Sky conditions: mostly clear
Temperature: 77 F (25 C)
Dew Point: 57 F (14 C)
Relative Humidity: 50%
Pressure (altimeter): 29.95 in. Hg (1014 hPa)
ob: KSME 242115Z AUTO 19010KT 140V210 10SM FEW050 25/14 A2995 RMK AO2
cycle: 21

Station Type Date Time Source
KSME TAF 2021/10/24 18:30 UTC NOAA

TAF KSME 241728Z 2418/2518 20010G17KT P6SM FEW040
FM250100 18006KT P6SM FEW250 WS020/20035KT
FM251000 19008KT P6SM VCSH SCT080 BKN120 WS020/21045KT
FM251200 19010G18KT P6SM SHRA BKN070 WS020/22040KT
FM251300 19010G19KT P6SM SHRA OVC025
FM251500 19011G22KT P6SM SHRA BKN015

Example: see airport list